createdAt,value
2018-06-18T00:00:20.015Z,15.4
2018-06-18T00:01:19.609Z,15.4
2018-06-18T00:02:19.962Z,15.4
2018-06-18T00:03:20.079Z,15.4
2018-06-18T00:04:21.854Z,15.4
2018-06-18T00:05:19.757Z,15.3
2018-06-18T00:06:20.777Z,15.3
2018-06-18T00:07:19.556Z,15.3
2018-06-18T00:08:20.652Z,15.3
2018-06-18T00:09:19.931Z,15.3
2018-06-18T00:10:19.805Z,15.3
2018-06-18T00:11:21.055Z,15.3
2018-06-18T00:12:19.580Z,15.2
2018-06-18T00:13:19.911Z,15.2
2018-06-18T00:16:01.075Z,15.2
2018-06-18T00:16:08.627Z,15.2
2018-06-18T00:17:08.060Z,15.2
2018-06-18T00:18:08.107Z,15.1
2018-06-18T00:19:08.290Z,15.1
2018-06-18T00:20:08.573Z,15.1
2018-06-18T00:21:08.254Z,15.1
2018-06-18T00:22:08.321Z,15.1
2018-06-18T00:23:08.139Z,15.1
2018-06-18T00:24:08.250Z,15.1
2018-06-18T00:25:08.266Z,15.2
2018-06-18T00:26:08.014Z,15.2
2018-06-18T00:27:08.428Z,15.2
2018-06-18T00:28:08.481Z,15.1
2018-06-18T00:29:08.271Z,15.1
2018-06-18T00:30:09.158Z,15.1
2018-06-18T00:31:08.429Z,15.1
2018-06-18T00:32:08.642Z,15.1
2018-06-18T00:33:08.469Z,15.1
2018-06-18T00:34:08.235Z,15.1
2018-06-18T00:35:08.500Z,15.1
2018-06-18T00:36:08.260Z,15.1
2018-06-18T00:37:08.156Z,15.1
2018-06-18T00:38:08.590Z,14.9
2018-06-18T00:39:08.562Z,14.9
2018-06-18T00:40:08.077Z,14.9
2018-06-18T00:41:08.516Z,14.8
2018-06-18T00:42:08.515Z,14.8
2018-06-18T00:43:08.074Z,14.8
2018-06-18T00:44:08.556Z,14.8
2018-06-18T00:45:36.835Z,14.8
2018-06-18T00:46:08.251Z,14.7
2018-06-18T00:47:08.580Z,14.7
2018-06-18T00:48:08.216Z,14.6
2018-06-18T00:49:09.882Z,14.6
2018-06-18T00:50:08.555Z,14.6
2018-06-18T00:51:08.605Z,14.6
2018-06-18T00:52:08.566Z,14.6
2018-06-18T00:53:08.214Z,14.5
2018-06-18T00:54:08.297Z,14.5
2018-06-18T00:55:08.720Z,14.5
2018-06-18T00:56:08.234Z,14.5
2018-06-18T00:57:08.645Z,14.5
2018-06-18T00:58:08.634Z,14.4
2018-06-18T00:59:08.341Z,14.4
2018-06-18T01:00:08.632Z,14.4
2018-06-18T01:01:08.111Z,14.4
2018-06-18T01:02:08.544Z,14.4
2018-06-18T01:03:08.637Z,14.4
2018-06-18T01:04:09.268Z,14.4
2018-06-18T01:05:09.420Z,14.4
2018-06-18T01:06:09.130Z,14.4
2018-06-18T01:07:08.645Z,14.4
2018-06-18T01:08:09.330Z,14.4
2018-06-18T01:09:08.108Z,14.4
2018-06-18T01:10:08.217Z,14.4
2018-06-18T01:11:08.522Z,14.4
2018-06-18T01:12:08.561Z,14.4
2018-06-18T01:13:08.657Z,14.4
2018-06-18T01:14:09.134Z,14.4
2018-06-18T01:15:08.378Z,14.4
2018-06-18T01:16:08.135Z,14.4
2018-06-18T01:17:09.380Z,14.4
2018-06-18T01:18:08.824Z,14.4
2018-06-18T01:19:08.484Z,14.3
2018-06-18T01:20:08.687Z,14.3
2018-06-18T01:21:08.542Z,14.3
2018-06-18T01:22:08.773Z,14.3
2018-06-18T01:23:08.572Z,14.3
2018-06-18T01:24:08.825Z,14.3
2018-06-18T01:25:08.827Z,14.3
2018-06-18T01:26:08.489Z,14.4
2018-06-18T01:27:08.787Z,14.4
2018-06-18T01:28:08.832Z,14.4
2018-06-18T01:29:08.829Z,14.4
2018-06-18T01:30:08.689Z,14.4
2018-06-18T01:31:08.703Z,14.3
2018-06-18T01:32:08.833Z,14.3
2018-06-18T01:33:08.784Z,14.3
2018-06-18T01:34:08.281Z,14.4
2018-06-18T01:35:08.468Z,14.4
2018-06-18T01:36:08.205Z,14.4
2018-06-18T01:37:08.738Z,14.3
2018-06-18T01:38:08.406Z,14.3
2018-06-18T01:39:08.270Z,14.2
2018-06-18T01:40:08.736Z,14.2
2018-06-18T01:41:08.397Z,14.2
2018-06-18T01:42:08.531Z,14.1
2018-06-18T01:43:09.266Z,14.1
2018-06-18T01:44:08.994Z,14.0
2018-06-18T01:45:08.781Z,14.0
2018-06-18T01:46:08.246Z,14.0
2018-06-18T01:47:08.427Z,14.0
2018-06-18T01:48:08.608Z,14.0
2018-06-18T01:49:08.704Z,14.0
2018-06-18T01:50:08.824Z,14.0
2018-06-18T01:51:08.713Z,14.0
2018-06-18T01:52:08.478Z,13.9
2018-06-18T01:53:08.771Z,13.9
2018-06-18T01:54:08.483Z,13.9
2018-06-18T01:55:08.669Z,13.9
2018-06-18T01:56:08.621Z,13.9
2018-06-18T01:57:08.261Z,13.9
2018-06-18T01:58:08.643Z,13.9
2018-06-18T01:59:08.797Z,13.8
2018-06-18T02:00:09.179Z,13.8
2018-06-18T02:01:08.323Z,13.8
2018-06-18T02:02:08.742Z,13.8
2018-06-18T02:03:08.663Z,13.8
2018-06-18T02:04:08.510Z,13.8
2018-06-18T02:05:08.271Z,13.8
2018-06-18T02:06:09.365Z,13.8
2018-06-18T02:07:08.513Z,13.8
2018-06-18T02:08:08.685Z,13.8
2018-06-18T02:09:08.491Z,13.8
2018-06-18T02:10:08.687Z,13.9
2018-06-18T02:11:08.817Z,13.9
2018-06-18T02:12:08.495Z,13.9
2018-06-18T02:13:08.659Z,13.9
2018-06-18T02:14:08.461Z,13.9
2018-06-18T02:15:08.725Z,14.0
2018-06-18T02:16:08.394Z,14.0
2018-06-18T02:17:08.343Z,14.0
2018-06-18T02:18:08.452Z,14.0
2018-06-18T02:19:08.690Z,14.0
2018-06-18T02:20:09.029Z,14.0
2018-06-18T02:21:08.368Z,14.0
2018-06-18T02:22:08.847Z,14.0
2018-06-18T02:23:08.767Z,14.0
2018-06-18T02:24:09.497Z,14.0
2018-06-18T02:25:08.390Z,14.0
2018-06-18T02:26:08.358Z,14.0
2018-06-18T02:27:08.593Z,14.0
2018-06-18T02:28:08.798Z,14.0
2018-06-18T02:29:08.530Z,14.0
2018-06-18T02:30:36.973Z,14.0
2018-06-18T02:31:09.497Z,14.0
2018-06-18T02:32:08.527Z,14.0
2018-06-18T02:33:08.556Z,14.0
2018-06-18T02:34:08.877Z,14.0
2018-06-18T02:35:08.441Z,14.0
2018-06-18T02:36:08.551Z,14.0
2018-06-18T02:37:09.414Z,14.0
2018-06-18T02:38:09.886Z,14.0
2018-06-18T02:39:08.799Z,14.0
2018-06-18T02:40:08.393Z,14.1
2018-06-18T02:42:22.169Z,14.1
2018-06-18T02:43:21.878Z,14.1
2018-06-18T02:44:21.847Z,14.1
2018-06-18T02:45:22.132Z,14.1
2018-06-18T02:46:22.054Z,14.1
2018-06-18T02:47:22.687Z,14.1
2018-06-18T02:48:21.807Z,14.1
2018-06-18T02:49:22.086Z,14.1
2018-06-18T02:50:22.092Z,14.1
2018-06-18T02:51:21.767Z,14.1
2018-06-18T02:52:22.056Z,14.1
2018-06-18T02:53:22.111Z,14.0
2018-06-18T02:54:21.713Z,14.0
2018-06-18T02:55:21.909Z,14.0
2018-06-18T02:56:22.202Z,14.0
2018-06-18T02:57:22.167Z,14.0
2018-06-18T02:58:22.130Z,14.0
2018-06-18T02:59:21.942Z,14.0
2018-06-18T03:00:22.129Z,14.0
2018-06-18T03:01:21.631Z,14.0
2018-06-18T03:02:50.182Z,14.0
2018-06-18T03:03:21.824Z,13.9
2018-06-18T03:04:22.072Z,13.9
2018-06-18T03:05:22.061Z,13.9
2018-06-18T03:06:22.274Z,13.9
2018-06-18T03:07:22.132Z,13.9
2018-06-18T03:08:22.425Z,13.9
2018-06-18T03:09:22.699Z,13.9
2018-06-18T03:10:22.558Z,13.9
2018-06-18T03:11:21.721Z,13.9
2018-06-18T03:12:21.866Z,13.9
2018-06-18T03:14:35.351Z,13.9
2018-06-18T03:15:35.079Z,14.0
2018-06-18T03:16:35.317Z,14.0
2018-06-18T03:17:34.860Z,14.0
2018-06-18T03:18:35.233Z,14.0
2018-06-18T03:19:34.817Z,14.0
2018-06-18T03:20:34.848Z,13.9
2018-06-18T03:21:35.300Z,13.9
2018-06-18T03:22:35.241Z,13.9
2018-06-18T03:23:34.946Z,13.9
2018-06-18T03:25:03.345Z,13.9
2018-06-18T03:25:35.779Z,13.9
2018-06-18T03:26:34.881Z,13.9
2018-06-18T03:27:35.474Z,13.9
2018-06-18T03:28:35.768Z,13.8
2018-06-18T03:29:34.979Z,13.8
2018-06-18T03:30:35.452Z,14.0
2018-06-18T03:31:35.432Z,14.0
2018-06-18T03:32:35.764Z,14.0
2018-06-18T03:33:35.006Z,14.0
2018-06-18T03:34:35.450Z,14.0
2018-06-18T03:35:36.054Z,14.0
2018-06-18T03:36:35.175Z,14.0
2018-06-18T03:37:35.685Z,14.0
2018-06-18T03:38:35.528Z,14.2
2018-06-18T03:39:35.402Z,14.2
2018-06-18T03:40:35.076Z,14.2
2018-06-18T03:41:35.291Z,14.3
2018-06-18T03:42:35.287Z,14.3
2018-06-18T03:43:35.038Z,14.3
2018-06-18T03:44:35.379Z,14.3
2018-06-18T03:45:37.556Z,14.3
2018-06-18T03:46:34.921Z,14.3
2018-06-18T03:47:35.042Z,14.3
2018-06-18T03:48:35.339Z,14.3
2018-06-18T03:49:35.138Z,14.3
2018-06-18T03:50:35.451Z,14.3
2018-06-18T03:51:35.463Z,14.4
2018-06-18T03:52:35.283Z,14.4
2018-06-18T03:53:35.420Z,14.4
2018-06-18T03:54:35.406Z,14.4
2018-06-18T03:55:35.360Z,14.4
2018-06-18T03:56:35.431Z,14.4
2018-06-18T03:57:35.312Z,14.4
2018-06-18T03:58:35.111Z,14.4
2018-06-18T03:59:35.184Z,14.4
2018-06-18T04:03:00.229Z,14.4
2018-06-18T04:04:00.612Z,14.4
2018-06-18T04:05:00.987Z,14.4
2018-06-18T04:06:00.440Z,14.4
2018-06-18T04:07:00.398Z,14.4
2018-06-18T04:08:00.687Z,14.4
2018-06-18T04:09:00.763Z,14.4
2018-06-18T04:10:00.153Z,14.4
2018-06-18T04:11:00.744Z,14.4
2018-06-18T04:12:00.406Z,14.4
2018-06-18T04:13:10.781Z,14.4
2018-06-18T04:14:00.735Z,14.4
2018-06-18T04:15:00.487Z,14.4
2018-06-18T04:16:00.416Z,14.4
2018-06-18T04:17:00.432Z,14.4
2018-06-18T04:18:00.816Z,14.4
2018-06-18T04:19:00.749Z,14.3
2018-06-18T04:20:00.315Z,14.3
2018-06-18T04:21:00.766Z,14.3
2018-06-18T04:22:00.364Z,14.3
2018-06-18T04:23:01.057Z,14.3
2018-06-18T04:24:06.164Z,14.2
2018-06-18T04:25:01.894Z,14.2
2018-06-18T04:26:00.884Z,14.2
2018-06-18T04:27:00.759Z,14.2
2018-06-18T04:28:00.862Z,14.2
2018-06-18T04:29:01.641Z,14.2
2018-06-18T04:30:01.150Z,14.2
2018-06-18T04:31:00.789Z,14.2
2018-06-18T04:32:02.544Z,14.3
2018-06-18T04:33:00.913Z,14.3
2018-06-18T04:34:16.398Z,14.3
2018-06-18T04:35:00.741Z,14.4
2018-06-18T04:36:00.998Z,14.4
2018-06-18T04:37:00.542Z,14.4
2018-06-18T04:38:00.709Z,14.4
2018-06-18T04:39:00.761Z,14.4
2018-06-18T04:40:00.796Z,14.4
2018-06-18T04:41:01.347Z,14.4
2018-06-18T04:42:00.648Z,14.6
2018-06-18T04:43:01.013Z,14.6
2018-06-18T04:44:00.941Z,14.6
2018-06-18T04:45:06.598Z,14.6
2018-06-18T04:46:00.605Z,14.6
2018-06-18T04:47:01.948Z,14.6
2018-06-18T04:48:00.695Z,14.6
2018-06-18T04:49:00.688Z,14.6
2018-06-18T04:50:01.205Z,14.6
2018-06-18T04:51:02.126Z,14.6
2018-06-18T04:52:00.984Z,14.8
2018-06-18T04:53:00.766Z,14.8
2018-06-18T04:54:00.323Z,14.8
2018-06-18T04:55:00.396Z,14.8
2018-06-18T04:56:00.283Z,14.8
2018-06-18T04:57:00.597Z,14.8
2018-06-18T04:58:00.452Z,14.8
2018-06-18T04:59:00.462Z,14.8
2018-06-18T05:00:02.399Z,14.8
2018-06-18T05:01:00.431Z,14.8
2018-06-18T05:02:00.536Z,14.8
2018-06-18T05:03:00.562Z,14.8
2018-06-18T05:04:00.361Z,14.8
2018-06-18T05:05:00.890Z,15.0
2018-06-18T05:06:01.497Z,15.0
2018-06-18T05:07:00.477Z,15.0
2018-06-18T05:08:00.319Z,15.0
2018-06-18T05:09:00.430Z,15.0
2018-06-18T05:10:15.544Z,15.0
2018-06-18T05:11:00.777Z,15.0
2018-06-18T05:12:01.831Z,15.0
2018-06-18T05:13:00.752Z,15.1
2018-06-18T05:14:00.922Z,15.1
2018-06-18T05:15:01.121Z,15.2
2018-06-18T05:16:00.857Z,15.2
2018-06-18T05:17:00.461Z,15.2
2018-06-18T05:18:00.416Z,15.2
2018-06-18T05:19:00.520Z,15.2
2018-06-18T05:20:00.658Z,15.2
2018-06-18T05:21:04.098Z,15.2
2018-06-18T05:22:00.549Z,15.2
2018-06-18T05:23:00.949Z,15.4
2018-06-18T05:24:00.655Z,15.4
2018-06-18T05:25:01.005Z,15.3
2018-06-18T05:26:01.138Z,15.3
2018-06-18T05:27:01.025Z,15.3
2018-06-18T05:28:00.489Z,15.4
2018-06-18T05:29:00.660Z,15.4
2018-06-18T05:30:00.903Z,15.4
2018-06-18T05:31:02.268Z,15.4
2018-06-18T05:32:01.502Z,15.4
2018-06-18T05:33:01.733Z,15.5
2018-06-18T05:34:00.994Z,15.5
2018-06-18T05:35:01.027Z,15.5
2018-06-18T05:36:01.022Z,15.5
2018-06-18T05:37:00.456Z,15.5
2018-06-18T05:38:00.960Z,15.4
2018-06-18T05:39:00.944Z,15.4
2018-06-18T05:40:00.954Z,15.4
2018-06-18T05:41:01.241Z,15.4
2018-06-18T05:42:00.899Z,15.4
2018-06-18T05:43:00.527Z,15.5
2018-06-18T05:44:01.021Z,15.5
2018-06-18T05:45:00.455Z,15.5
2018-06-18T05:46:00.988Z,15.6
2018-06-18T05:47:00.957Z,15.6
2018-06-18T05:48:00.993Z,15.6
2018-06-18T05:49:00.668Z,15.6
2018-06-18T05:50:00.485Z,15.6
2018-06-18T05:52:00.672Z,15.8
2018-06-18T05:53:00.805Z,15.8
2018-06-18T05:54:00.666Z,15.8
2018-06-18T05:55:00.678Z,15.8
2018-06-18T05:56:00.722Z,15.9
2018-06-18T05:57:00.699Z,15.9
2018-06-18T05:58:01.078Z,15.8
2018-06-18T05:59:00.904Z,15.8
2018-06-18T06:00:00.550Z,15.8
2018-06-18T06:01:01.040Z,15.8
2018-06-18T06:02:01.044Z,15.8
2018-06-18T06:03:01.047Z,15.8
2018-06-18T06:04:01.110Z,15.9
2018-06-18T06:05:00.973Z,15.9
2018-06-18T06:06:00.606Z,16.0
2018-06-18T06:07:02.263Z,16.0
2018-06-18T06:08:00.705Z,16.0
2018-06-18T06:09:01.140Z,15.9
2018-06-18T06:10:01.326Z,15.9
2018-06-18T06:11:00.752Z,15.9
2018-06-18T06:12:00.581Z,15.9
2018-06-18T06:13:00.690Z,15.9
2018-06-18T06:14:01.036Z,16.2
2018-06-18T06:15:00.780Z,16.2
2018-06-18T06:16:00.755Z,16.4
2018-06-18T06:17:01.181Z,16.4
2018-06-18T06:18:01.074Z,16.4
2018-06-18T06:19:00.545Z,16.6
2018-06-18T06:20:01.270Z,16.6
2018-06-18T06:21:01.056Z,16.8
2018-06-18T06:22:01.543Z,16.8
2018-06-18T06:23:00.677Z,16.8
2018-06-18T06:24:00.557Z,17.0
2018-06-18T06:25:00.986Z,17.0
2018-06-18T06:26:00.811Z,17.0
2018-06-18T06:27:01.018Z,17.0
2018-06-18T06:28:00.549Z,17.0
2018-06-18T06:29:00.527Z,17.2
2018-06-18T06:30:01.067Z,17.2
2018-06-18T06:31:01.134Z,17.2
2018-06-18T06:32:01.099Z,17.2
2018-06-18T06:33:00.785Z,17.2
2018-06-18T06:34:00.608Z,17.4
2018-06-18T06:35:00.735Z,17.4
2018-06-18T06:36:00.985Z,17.4
2018-06-18T06:37:01.367Z,17.4
2018-06-18T06:38:00.973Z,17.4
2018-06-18T06:39:00.790Z,17.4
2018-06-18T06:41:41.896Z,17.4
2018-06-18T06:41:51.353Z,17.4
2018-06-18T06:42:50.605Z,17.4
2018-06-18T06:43:50.673Z,17.8
2018-06-18T06:44:50.611Z,17.8
2018-06-18T06:45:50.292Z,17.8
2018-06-18T06:46:50.698Z,17.8
2018-06-18T06:47:50.729Z,17.8
2018-06-18T06:48:50.611Z,17.9
2018-06-18T06:49:50.949Z,17.9
2018-06-18T06:50:50.716Z,17.9
2018-06-18T06:51:50.793Z,17.7
2018-06-18T06:52:50.507Z,17.7
2018-06-18T06:53:50.331Z,17.7
2018-06-18T06:54:50.413Z,17.6
2018-06-18T06:55:50.381Z,17.6
2018-06-18T06:56:50.751Z,17.8
2018-06-18T06:57:50.493Z,17.8
2018-06-18T06:58:51.115Z,17.8
2018-06-18T06:59:50.568Z,17.8
2018-06-18T07:00:50.593Z,17.8
2018-06-18T07:01:50.812Z,17.7
2018-06-18T07:02:50.504Z,17.7
2018-06-18T07:03:50.764Z,17.7
2018-06-18T07:04:50.471Z,17.8
2018-06-18T07:05:50.781Z,17.8
2018-06-18T07:06:50.322Z,17.8
2018-06-18T07:07:50.847Z,17.8
2018-06-18T07:08:51.375Z,17.8
2018-06-18T07:09:50.762Z,17.8
2018-06-18T07:10:50.711Z,17.8
2018-06-18T07:11:50.423Z,17.7
2018-06-18T07:12:50.721Z,17.7
2018-06-18T07:13:50.782Z,17.7
2018-06-18T07:14:50.774Z,17.6
2018-06-18T07:15:50.311Z,17.6
2018-06-18T07:16:50.306Z,17.7
2018-06-18T07:17:50.918Z,17.7
2018-06-18T07:18:51.008Z,17.7
2018-06-18T07:19:50.446Z,17.8
2018-06-18T07:20:50.465Z,17.8
2018-06-18T07:21:51.536Z,17.8
2018-06-18T07:22:50.717Z,17.8
2018-06-18T07:23:50.868Z,17.8
2018-06-18T07:24:50.845Z,17.6
2018-06-18T07:25:50.598Z,17.6
2018-06-18T07:26:50.585Z,17.6
2018-06-18T07:27:50.298Z,17.6
2018-06-18T07:28:50.849Z,17.6
2018-06-18T07:29:50.619Z,17.6
2018-06-18T07:30:51.231Z,17.6
2018-06-18T07:31:50.575Z,17.6
2018-06-18T07:32:50.774Z,17.8
2018-06-18T07:33:50.839Z,17.8
2018-06-18T07:34:52.670Z,17.7
2018-06-18T07:35:50.323Z,17.7
2018-06-18T07:36:50.327Z,17.7
2018-06-18T07:37:50.463Z,17.2
2018-06-18T07:38:50.819Z,17.2
2018-06-18T07:39:50.808Z,17.0
2018-06-18T07:40:51.813Z,17.0
2018-06-18T07:41:50.555Z,17.0
2018-06-18T07:42:50.568Z,17.1
2018-06-18T07:43:50.537Z,17.1
2018-06-18T07:44:50.967Z,17.4
2018-06-18T07:45:50.395Z,17.4
2018-06-18T07:46:50.778Z,17.4
2018-06-18T07:47:50.939Z,17.9
2018-06-18T07:48:50.895Z,17.9
2018-06-18T07:49:51.023Z,18.2
2018-06-18T07:50:50.856Z,18.2
2018-06-18T07:51:50.780Z,18.2
2018-06-18T07:52:50.550Z,18.5
2018-06-18T07:53:50.955Z,18.5
2018-06-18T07:54:50.897Z,18.5
2018-06-18T07:55:50.535Z,18.2
2018-06-18T07:56:50.360Z,18.2
2018-06-18T07:57:50.907Z,18.0
2018-06-18T07:58:50.838Z,18.0
2018-06-18T07:59:50.928Z,18.0
2018-06-18T08:00:50.844Z,17.7
2018-06-18T08:01:50.407Z,17.7
2018-06-18T08:02:50.419Z,17.7
2018-06-18T08:03:50.508Z,17.7
2018-06-18T08:04:50.960Z,17.7
2018-06-18T08:05:51.174Z,18.1
2018-06-18T08:07:50.658Z,17.9
2018-06-18T08:08:50.878Z,17.9
2018-06-18T08:09:51.001Z,17.9
2018-06-18T08:10:50.686Z,17.6
2018-06-18T08:11:50.879Z,17.6
2018-06-18T08:12:50.458Z,17.9
2018-06-18T08:13:50.943Z,17.9
2018-06-18T08:14:50.554Z,17.9
2018-06-18T08:15:50.798Z,18.0
2018-06-18T08:16:50.480Z,18.0
2018-06-18T08:17:50.468Z,17.6
2018-06-18T08:18:50.548Z,17.6
2018-06-18T08:19:50.826Z,17.6
2018-06-18T08:20:50.482Z,17.7
2018-06-18T08:21:50.595Z,17.7
2018-06-18T08:22:50.887Z,17.7
2018-06-18T08:23:50.925Z,17.7
2018-06-18T08:24:50.969Z,17.7
2018-06-18T08:25:50.635Z,17.6
2018-06-18T08:26:50.548Z,17.6
2018-06-18T08:27:50.611Z,17.6
2018-06-18T08:28:50.609Z,17.5
2018-06-18T08:29:50.590Z,17.5
2018-06-18T08:30:50.912Z,17.7
2018-06-18T08:31:50.975Z,17.7
2018-06-18T08:32:50.922Z,17.7
2018-06-18T08:33:51.073Z,17.9
2018-06-18T08:34:50.568Z,17.9
2018-06-18T08:35:50.881Z,18.1
2018-06-18T08:36:51.070Z,18.1
2018-06-18T08:37:51.634Z,18.1
2018-06-18T08:38:50.632Z,18.1
2018-06-18T08:39:50.998Z,18.1
2018-06-18T08:40:51.027Z,18.2
2018-06-18T08:41:50.961Z,18.2
2018-06-18T08:42:50.510Z,18.2
2018-06-18T08:43:50.835Z,18.2
2018-06-18T08:44:50.759Z,18.2
2018-06-18T08:45:51.024Z,18.4
2018-06-18T08:46:50.703Z,18.4
2018-06-18T08:47:50.590Z,18.4
2018-06-18T08:48:51.107Z,18.7
2018-06-18T08:59:35.789Z,18.7
2018-06-18T09:00:35.251Z,18.4
2018-06-18T09:01:35.767Z,18.9
2018-06-18T09:02:35.891Z,18.9
2018-06-18T09:03:36.467Z,18.9
2018-06-18T09:04:35.745Z,18.9
2018-06-18T09:05:35.795Z,18.9
2018-06-18T09:06:35.968Z,18.9
2018-06-18T09:07:35.409Z,18.9
2018-06-18T09:08:35.583Z,18.9
2018-06-18T09:09:36.796Z,19.0
2018-06-18T09:10:35.951Z,19.0
2018-06-18T09:11:35.593Z,19.0
2018-06-18T09:12:35.586Z,19.0
2018-06-18T09:13:35.816Z,19.0
2018-06-18T09:14:35.814Z,18.9
2018-06-18T09:15:35.517Z,18.9
2018-06-18T09:16:35.846Z,19.2
2018-06-18T09:17:35.313Z,19.2
2018-06-18T09:18:35.779Z,19.2
2018-06-18T09:19:35.396Z,19.0
2018-06-18T09:20:35.489Z,19.0
2018-06-18T09:21:35.395Z,19.0
2018-06-18T09:22:35.900Z,19.0
2018-06-18T09:23:35.942Z,19.0
2018-06-18T09:24:35.774Z,19.0
2018-06-18T09:25:35.750Z,19.0
2018-06-18T09:26:35.841Z,18.8
2018-06-18T09:27:35.391Z,18.8
2018-06-18T09:28:35.791Z,18.8
2018-06-18T09:29:35.385Z,19.2
2018-06-18T09:30:36.120Z,19.2
2018-06-18T09:31:36.545Z,19.8
2018-06-18T09:32:36.377Z,19.8
2018-06-18T09:33:35.703Z,19.8
2018-06-18T09:34:35.455Z,19.9
2018-06-18T09:42:08.497Z,19.9
2018-06-18T09:42:20.902Z,19.9
2018-06-18T09:43:23.118Z,19.8
2018-06-18T09:44:22.521Z,18.8
2018-06-18T09:45:23.420Z,18.8
2018-06-18T09:46:22.419Z,18.8
2018-06-18T09:47:22.054Z,18.6
2018-06-18T09:48:22.059Z,18.6
2018-06-18T09:49:22.458Z,18.6
2018-06-18T09:51:58.100Z,18.6
2018-06-18T09:52:11.059Z,18.6
2018-06-18T09:53:12.105Z,19.1
2018-06-18T09:54:12.119Z,19.1
2018-06-18T09:55:11.724Z,19.8
2018-06-18T09:56:11.794Z,19.8
2018-06-18T09:57:12.595Z,19.5
2018-06-18T09:58:12.201Z,19.5
2018-06-18T09:59:12.105Z,19.5
2018-06-18T10:00:12.087Z,19.7
2018-06-18T10:01:11.605Z,19.7
2018-06-18T10:02:11.908Z,19.9
2018-06-18T10:03:12.162Z,19.9
2018-06-18T10:04:12.202Z,19.9
2018-06-18T10:05:12.131Z,19.9
2018-06-18T10:06:12.167Z,19.9
2018-06-18T10:07:12.197Z,19.7
2018-06-18T10:08:12.896Z,19.7
2018-06-18T10:09:12.673Z,19.7
2018-06-18T10:10:12.093Z,20.0
2018-06-18T10:11:12.641Z,20.0
2018-06-18T10:12:13.343Z,20.6
2018-06-18T10:13:11.929Z,20.6
2018-06-18T10:14:12.226Z,20.6
2018-06-18T10:15:12.106Z,19.6
2018-06-18T10:16:12.172Z,19.6
2018-06-18T10:17:11.643Z,19.6
2018-06-18T10:18:11.944Z,19.9
2018-06-18T10:19:11.800Z,19.9
2018-06-18T10:20:12.137Z,19.6
2018-06-18T10:24:30.074Z,19.6
2018-06-18T10:24:54.833Z,19.6
2018-06-18T10:25:57.643Z,19.4
2018-06-18T10:26:55.630Z,19.4
2018-06-18T10:27:55.720Z,19.9
2018-06-18T10:28:55.419Z,19.9
2018-06-18T10:29:55.548Z,19.9
2018-06-18T10:30:56.257Z,20.9
2018-06-18T10:31:55.977Z,20.9
2018-06-18T10:34:08.321Z,21.3
2018-06-18T10:35:08.350Z,21.5
2018-06-18T10:36:08.522Z,21.5
2018-06-18T10:37:08.520Z,21.5
2018-06-18T10:38:08.861Z,21.8
2018-06-18T10:39:08.512Z,21.8
2018-06-18T10:40:08.893Z,20.7
2018-06-18T10:41:08.299Z,20.7
2018-06-18T10:42:08.768Z,20.7
2018-06-18T10:43:08.599Z,20.2
2018-06-18T10:44:24.536Z,20.2
2018-06-18T10:45:08.333Z,20.2
2018-06-18T10:46:08.832Z,20.2
2018-06-18T10:47:08.713Z,20.2
2018-06-18T10:48:08.438Z,21.1
2018-06-18T10:49:08.365Z,21.1
2018-06-18T10:50:08.339Z,21.1
2018-06-18T10:51:08.895Z,21.4
2018-06-18T10:52:08.902Z,21.4
2018-06-18T10:53:08.481Z,21.8
2018-06-18T10:54:36.988Z,21.8
2018-06-18T10:55:08.737Z,21.8
2018-06-18T10:56:08.478Z,21.2
2018-06-18T10:57:08.955Z,21.2
2018-06-18T10:58:08.376Z,21.0
2018-06-18T10:59:08.928Z,21.0
2018-06-18T11:00:08.894Z,21.0
2018-06-18T11:01:09.031Z,21.2
2018-06-18T11:02:08.505Z,21.2
2018-06-18T11:03:09.012Z,21.1
2018-06-18T11:04:08.489Z,21.1
2018-06-18T11:05:08.948Z,21.1
2018-06-18T11:06:08.482Z,21.5
2018-06-18T11:07:09.344Z,21.5
2018-06-18T11:08:08.727Z,21.5
2018-06-18T11:09:09.650Z,21.5
2018-06-18T11:10:08.852Z,21.5
2018-06-18T11:11:09.303Z,21.6
2018-06-18T11:12:08.933Z,21.6
2018-06-18T11:13:09.805Z,21.6
2018-06-18T11:14:08.417Z,22.0
2018-06-18T11:15:10.064Z,22.0
2018-06-18T11:16:09.067Z,22.6
2018-06-18T11:17:08.974Z,22.6
2018-06-18T11:18:08.735Z,22.6
2018-06-18T11:19:08.790Z,21.6
2018-06-18T11:20:08.437Z,21.6
2018-06-18T11:21:08.461Z,20.8
2018-06-18T11:22:09.009Z,20.8
2018-06-18T11:23:37.167Z,20.8
2018-06-18T11:24:08.754Z,20.4
2018-06-18T11:25:08.715Z,20.4
2018-06-18T11:26:09.695Z,20.4
2018-06-18T11:27:08.723Z,20.4
2018-06-18T11:28:08.964Z,20.4
2018-06-18T11:29:09.016Z,21.0
2018-06-18T11:30:09.074Z,21.0
2018-06-18T11:31:08.836Z,21.0
2018-06-18T11:32:08.977Z,21.0
2018-06-18T11:33:08.688Z,21.0
2018-06-18T11:35:22.110Z,20.5
2018-06-18T11:36:21.746Z,20.6
2018-06-18T11:37:22.722Z,20.6
2018-06-18T11:38:22.291Z,20.6
2018-06-18T11:39:22.506Z,20.7
2018-06-18T11:40:21.998Z,20.7
2018-06-18T11:41:22.174Z,21.1
2018-06-18T11:42:21.953Z,21.1
2018-06-18T11:44:21.964Z,20.8
2018-06-18T11:45:21.600Z,20.8
2018-06-18T11:46:21.920Z,21.2
2018-06-18T11:47:21.867Z,21.2
2018-06-18T11:48:21.916Z,21.2
2018-06-18T11:49:22.059Z,21.7
2018-06-18T11:50:22.057Z,21.7
2018-06-18T11:51:24.020Z,21.9
2018-06-18T11:52:23.424Z,21.9
2018-06-18T11:53:22.672Z,21.9
2018-06-18T11:54:22.072Z,22.0
2018-06-18T11:55:22.208Z,22.0
2018-06-18T11:56:22.432Z,22.0
2018-06-18T11:57:21.960Z,21.6
2018-06-18T11:58:22.537Z,21.6
2018-06-18T11:59:22.164Z,21.4
2018-06-18T12:00:22.626Z,21.4
2018-06-18T12:01:22.259Z,21.4
2018-06-18T12:02:22.260Z,21.6
2018-06-18T12:03:21.773Z,21.6
2018-06-18T12:04:22.423Z,21.5
2018-06-18T12:05:22.912Z,21.5
2018-06-18T12:06:22.793Z,21.5
2018-06-18T12:07:22.066Z,21.5
2018-06-18T12:08:22.204Z,21.5
2018-06-18T12:09:22.420Z,21.5
2018-06-18T12:10:21.859Z,21.5
2018-06-18T12:11:22.023Z,21.5
2018-06-18T12:12:22.300Z,21.8
2018-06-18T12:13:22.290Z,21.8
2018-06-18T12:14:22.314Z,21.4
2018-06-18T12:15:22.289Z,21.4
2018-06-18T12:16:22.449Z,21.4
2018-06-18T12:17:22.401Z,21.8
2018-06-18T12:18:22.520Z,21.8
2018-06-18T12:19:22.320Z,22.2
2018-06-18T12:20:22.409Z,22.2
2018-06-18T12:21:22.987Z,22.2
2018-06-18T12:22:21.908Z,22.2
2018-06-18T12:23:22.844Z,22.2
2018-06-18T12:24:22.265Z,22.3
2018-06-18T12:25:22.720Z,22.3
2018-06-18T12:26:22.039Z,22.3
2018-06-18T12:28:32.394Z,22.2
2018-06-18T12:29:22.943Z,22.2
2018-06-18T12:30:22.724Z,21.9
2018-06-18T12:31:21.784Z,21.9
2018-06-18T12:32:22.380Z,21.9
2018-06-18T12:33:22.206Z,21.9
2018-06-18T12:34:22.295Z,21.9
2018-06-18T12:35:22.433Z,22.2
2018-06-18T12:36:22.953Z,22.2
2018-06-18T12:37:22.244Z,22.2
2018-06-18T12:38:22.552Z,22.2
2018-06-18T12:39:22.301Z,22.2
2018-06-18T12:40:23.026Z,22.0
2018-06-18T12:41:22.442Z,22.0
2018-06-18T12:42:22.307Z,21.5
2018-06-18T12:43:21.977Z,21.5
2018-06-18T12:44:22.142Z,21.5
2018-06-18T12:45:21.810Z,21.0
2018-06-18T12:46:22.037Z,21.0
2018-06-18T12:47:22.356Z,21.0
2018-06-18T12:48:22.132Z,21.0
2018-06-18T12:49:21.848Z,21.0
2018-06-18T12:50:22.097Z,21.7
2018-06-18T12:51:22.320Z,21.7
2018-06-18T12:52:22.767Z,22.0
2018-06-18T12:53:22.108Z,22.0
2018-06-18T12:54:22.415Z,22.0
2018-06-18T12:55:21.918Z,21.7
2018-06-18T12:56:22.363Z,21.7
2018-06-18T12:57:23.083Z,21.7
2018-06-18T12:58:22.006Z,22.7
2018-06-18T12:59:21.881Z,22.7
2018-06-18T13:00:22.140Z,22.3
2018-06-18T13:01:21.910Z,22.3
2018-06-18T13:02:22.478Z,22.3
2018-06-18T13:03:22.088Z,22.5
2018-06-18T13:04:22.357Z,22.5
2018-06-18T13:05:21.952Z,22.5
2018-06-18T13:06:21.907Z,22.5
2018-06-18T13:07:22.179Z,22.5
2018-06-18T13:08:22.004Z,22.5
2018-06-18T13:09:21.970Z,22.5
2018-06-18T13:10:22.108Z,22.4
2018-06-18T13:11:22.994Z,22.4
2018-06-18T13:12:21.872Z,22.4
2018-06-18T13:13:22.438Z,22.1
2018-06-18T13:14:22.044Z,22.1
2018-06-18T13:15:21.909Z,22.1
2018-06-18T13:16:22.456Z,22.1
2018-06-18T13:17:22.568Z,22.1
2018-06-18T13:18:22.984Z,22.0
2018-06-18T13:19:22.435Z,22.0
2018-06-18T13:20:22.374Z,22.1
2018-06-18T13:21:22.213Z,22.1
2018-06-18T13:22:21.892Z,22.1
2018-06-18T13:23:22.323Z,22.7
2018-06-18T13:24:21.951Z,22.7
2018-06-18T13:25:22.355Z,23.0
2018-06-18T13:26:22.581Z,23.0
2018-06-18T13:27:22.466Z,23.0
2018-06-18T13:28:21.971Z,23.0
2018-06-18T13:29:22.117Z,23.0
2018-06-18T13:30:21.901Z,23.0
2018-06-18T13:31:22.298Z,23.8
2018-06-18T13:32:22.437Z,23.8
2018-06-18T13:33:22.273Z,23.4
2018-06-18T13:34:22.603Z,23.4
2018-06-18T13:35:22.009Z,23.4
2018-06-18T13:36:23.534Z,23.6
2018-06-18T13:37:22.576Z,23.6
2018-06-18T13:38:22.408Z,22.8
2018-06-18T13:39:23.827Z,22.8
2018-06-18T13:40:22.488Z,22.8
2018-06-18T13:41:22.003Z,22.5
2018-06-18T13:42:22.416Z,22.5
2018-06-18T13:43:22.047Z,22.4
2018-06-18T13:50:54.788Z,22.4
2018-06-18T13:51:03.659Z,22.4
2018-06-18T13:52:03.268Z,22.6
2018-06-18T13:53:03.545Z,22.6
2018-06-18T13:54:03.475Z,23.1
2018-06-18T13:55:03.381Z,23.1
2018-06-18T13:56:03.510Z,23.0